sensor_id;sensor_type;location;lat;lon;timestamp;P1;durP1;ratioP1;P2;durP2;ratioP2
50563;SDS011;36514;52.590;21.448;2023-05-08T06:48:25;454.95;;;425.72;;
50563;SDS011;36514;52.590;21.448;2023-05-08T06:58:23;549.85;;;515.15;;
50563;SDS011;36514;52.590;21.448;2023-05-08T07:08:51;417.37;;;396.26;;
50563;SDS011;36514;52.590;21.448;2023-05-08T07:19:01;344.54;;;325.85;;
50563;SDS011;36514;52.590;21.448;2023-05-08T07:29:08;305.18;;;288.42;;
50563;SDS011;36514;52.590;21.448;2023-05-08T07:39:14;642.65;;;603.79;;
50563;SDS011;36514;52.590;21.448;2023-05-08T07:49:18;856.74;;;794.57;;
50563;SDS011;36514;52.590;21.448;2023-05-08T07:59:19;907.69;;;833.82;;
50563;SDS011;36514;52.590;21.448;2023-05-08T08:09:21;995.35;;;877.50;;
50563;SDS011;36514;52.590;21.448;2023-05-08T08:19:22;993.91;;;901.10;;
50563;SDS011;36514;52.590;21.448;2023-05-08T08:29:24;1078.56;;;917.48;;
50563;SDS011;36514;52.590;21.448;2023-05-08T08:39:23;1072.74;;;903.94;;
50563;SDS011;36514;52.590;21.448;2023-05-08T08:49:28;1114.85;;;947.40;;
50563;SDS011;36514;52.590;21.448;2023-05-08T08:59:31;1122.14;;;956.99;;
50563;SDS011;36514;52.590;21.448;2023-05-08T09:09:32;1067.45;;;946.36;;
50563;SDS011;36514;52.590;21.448;2023-05-08T09:19:24;1004.57;;;912.05;;
50563;SDS011;36514;52.590;21.448;2023-05-08T09:29:20;1016.76;;;919.72;;
50563;SDS011;36514;52.590;21.448;2023-05-08T09:39:22;1087.32;;;948.54;;
50563;SDS011;36514;52.590;21.448;2023-05-08T09:49:15;1099.97;;;911.96;;
50563;SDS011;36514;52.590;21.448;2023-05-08T09:59:25;1256.17;;;937.75;;
50563;SDS011;36514;52.590;21.448;2023-05-08T10:09:27;1046.50;;;931.84;;
50563;SDS011;36514;52.590;21.448;2023-05-08T10:19:30;920.63;;;827.72;;
50563;SDS011;36514;52.590;21.448;2023-05-08T10:29:53;997.08;;;903.49;;
50563;SDS011;36514;52.590;21.448;2023-05-08T10:39:54;1060.26;;;939.77;;
50563;SDS011;36514;52.590;21.448;2023-05-08T11:00:12;947.75;;;858.45;;
50563;SDS011;36514;52.590;21.448;2023-05-08T11:10:06;1376.58;;;960.37;;
50563;SDS011;36514;52.590;21.448;2023-05-08T11:20:21;1032.45;;;915.58;;
50563;SDS011;36514;52.590;21.448;2023-05-08T11:40:44;965.37;;;873.24;;
50563;SDS011;36514;52.590;21.448;2023-05-08T11:50:45;1061.75;;;936.83;;
50563;SDS011;36514;52.590;21.448;2023-05-08T12:00:47;1030.40;;;924.26;;
50563;SDS011;36514;52.590;21.448;2023-05-08T12:10:56;1068.16;;;931.98;;
50563;SDS011;36514;52.590;21.448;2023-05-08T12:20:57;1096.84;;;944.91;;
50563;SDS011;36514;52.590;21.448;2023-05-08T12:30:52;1126.35;;;941.54;;
50563;SDS011;36514;52.590;21.448;2023-05-08T12:40:52;1159.26;;;954.68;;
50563;SDS011;36514;52.590;21.448;2023-05-08T12:50:50;1109.68;;;954.65;;
50563;SDS011;36514;52.590;21.448;2023-05-08T13:00:50;1160.32;;;937.00;;
50563;SDS011;36514;52.590;21.448;2023-05-08T13:10:51;1145.15;;;954.57;;
50563;SDS011;36514;52.590;21.448;2023-05-08T13:20:53;1345.37;;;972.49;;
50563;SDS011;36514;52.590;21.448;2023-05-08T13:30:46;1292.87;;;960.51;;
50563;SDS011;36514;52.590;21.448;2023-05-08T13:40:42;1410.08;;;981.85;;
50563;SDS011;36514;52.590;21.448;2023-05-08T13:50:39;1163.76;;;967.44;;
50563;SDS011;36514;52.590;21.448;2023-05-08T14:00:36;1281.56;;;975.48;;
50563;SDS011;36514;52.590;21.448;2023-05-08T14:10:33;1358.62;;;968.54;;
50563;SDS011;36514;52.590;21.448;2023-05-08T14:20:30;1394.47;;;967.71;;
50563;SDS011;36514;52.590;21.448;2023-05-08T14:30:26;1439.60;;;968.91;;
50563;SDS011;36514;52.590;21.448;2023-05-08T14:40:40;1366.94;;;966.25;;
50563;SDS011;36514;52.590;21.448;2023-05-08T14:50:39;1307.74;;;944.69;;
50563;SDS011;36514;52.590;21.448;2023-05-08T15:00:38;1221.14;;;950.02;;
50563;SDS011;36514;52.590;21.448;2023-05-08T15:10:37;1293.35;;;951.29;;
50563;SDS011;36514;52.590;21.448;2023-05-08T15:20:33;1232.94;;;935.23;;
50563;SDS011;36514;52.590;21.448;2023-05-08T15:30:28;1072.30;;;895.36;;
50563;SDS011;36514;52.590;21.448;2023-05-08T15:40:21;935.79;;;853.55;;
50563;SDS011;36514;52.590;21.448;2023-05-08T15:50:14;964.29;;;880.42;;
50563;SDS011;36514;52.590;21.448;2023-05-08T16:00:09;901.77;;;826.21;;
50563;SDS011;36514;52.590;21.448;2023-05-08T16:10:02;888.12;;;815.65;;
50563;SDS011;36514;52.590;21.448;2023-05-08T16:19:58;782.63;;;723.73;;
50563;SDS011;36514;52.590;21.448;2023-05-08T16:29:54;764.95;;;707.95;;
50563;SDS011;36514;52.590;21.448;2023-05-08T16:39:49;725.76;;;672.19;;
50563;SDS011;36514;52.590;21.448;2023-05-08T16:49:43;738.31;;;684.96;;
50563;SDS011;36514;52.590;21.448;2023-05-08T16:59:33;773.99;;;714.52;;
50563;SDS011;36514;52.590;21.448;2023-05-08T17:09:25;797.15;;;727.85;;
50563;SDS011;36514;52.590;21.448;2023-05-08T17:19:19;892.59;;;823.60;;
50563;SDS011;36514;52.590;21.448;2023-05-08T17:29:13;819.82;;;759.35;;
50563;SDS011;36514;52.590;21.448;2023-05-08T17:39:08;904.34;;;811.26;;
50563;SDS011;36514;52.590;21.448;2023-05-08T17:49:04;1440.38;;;856.33;;
50563;SDS011;36514;52.590;21.448;2023-05-08T17:59:14;1336.95;;;860.59;;
50563;SDS011;36514;52.590;21.448;2023-05-08T18:09:08;723.15;;;547.13;;
50563;SDS011;36514;52.590;21.448;2023-05-08T18:19:05;353.18;;;298.92;;
50563;SDS011;36514;52.590;21.448;2023-05-08T18:29:01;234.74;;;204.09;;
50563;SDS011;36514;52.590;21.448;2023-05-08T18:38:56;227.97;;;187.88;;
50563;SDS011;36514;52.590;21.448;2023-05-08T18:48:51;87.03;;;75.76;;
50563;SDS011;36514;52.590;21.448;2023-05-08T18:58:48;43.40;;;28.04;;
50563;SDS011;36514;52.590;21.448;2023-05-08T19:08:44;59.47;;;28.69;;
50563;SDS011;36514;52.590;21.448;2023-05-08T19:18:40;58.36;;;30.09;;
50563;SDS011;36514;52.590;21.448;2023-05-08T19:28:36;48.45;;;31.47;;
50563;SDS011;36514;52.590;21.448;2023-05-08T19:38:32;63.20;;;33.78;;
50563;SDS011;36514;52.590;21.448;2023-05-08T19:48:28;60.44;;;39.05;;
50563;SDS011;36514;52.590;21.448;2023-05-08T19:58:24;90.81;;;62.35;;
50563;SDS011;36514;52.590;21.448;2023-05-08T20:08:22;82.71;;;65.71;;
50563;SDS011;36514;52.590;21.448;2023-05-08T20:18:18;392.21;;;361.66;;
50563;SDS011;36514;52.590;21.448;2023-05-08T20:28:14;36.29;;;19.19;;
50563;SDS011;36514;52.590;21.448;2023-05-08T20:38:11;178.97;;;131.31;;
50563;SDS011;36514;52.590;21.448;2023-05-08T20:48:07;168.46;;;94.76;;
50563;SDS011;36514;52.590;21.448;2023-05-08T20:58:04;360.34;;;292.02;;
50563;SDS011;36514;52.590;21.448;2023-05-08T21:08:00;379.49;;;323.25;;
50563;SDS011;36514;52.590;21.448;2023-05-08T21:17:56;219.42;;;181.70;;
50563;SDS011;36514;52.590;21.448;2023-05-08T21:27:47;729.42;;;576.60;;
